Time;durP1;ratioP1;P1;durP2;ratioP2;P2;SDS_P1;SDS_P2;PMS_P1;PMS_P2;Temp;Humidity;BMP_temperature;BMP_pressure;BME280_temperature;BME280_humidity;BME280_pressure;Samples;Min_cycle;Max_cycle;Signal;HPM_P1;HPM_P2
2022/03/22 00:02:23;;;;;;;0.20;0.20;;;;;;;20.73;35.86;102701.94;5127587;27;20401;-32
2022/03/22 00:04:49;;;;;;;0.10;0.10;;;;;;;20.72;36.10;102703.81;5128401;27;20051;-34
2022/03/22 00:07:15;;;;;;;0.20;0.20;;;;;;;20.72;36.10;102705.75;5125899;28;20093;-33
2022/03/22 00:09:41;;;;;;;0.20;0.20;;;;;;;20.72;35.95;102705.75;5128322;28;20055;-31
2022/03/22 00:12:07;;;;;;;0.20;0.20;;;;;;;20.71;35.90;102707.69;5127404;27;20398;-31
2022/03/22 00:14:33;;;;;;;0.10;0.10;;;;;;;20.72;36.04;102705.75;5126820;27;20492;-31
2022/03/22 00:17:18;;;;;;;0.13;0.13;;;;;;;20.72;36.18;102708.53;5112155;28;20304;-31
2022/03/22 00:19:59;;;;;;;0.20;0.20;;;;;;;20.72;36.28;102712.13;5125436;28;20056;-31
2022/03/22 00:22:26;;;;;;;0.20;0.20;;;;;;;20.72;36.27;102709.38;5128905;27;20197;-31
2022/03/22 00:24:51;;;;;;;0.20;0.20;;;;;;;20.72;36.04;102714.06;5109057;28;20047;-32
2022/03/22 00:27:17;;;;;;;0.20;0.20;;;;;;;20.73;36.20;102719.38;5109810;28;20172;-29
2022/03/22 00:29:43;;;;;;;0.20;0.20;;;;;;;20.71;36.10;102716.00;5128668;28;20047;-36
2022/03/22 00:32:08;;;;;;;0.20;0.20;;;;;;;20.72;35.83;102714.06;5109238;28;20043;-36
2022/03/22 00:34:41;;;;;;;0.10;0.10;;;;;;;20.72;36.07;102714.06;5108889;28;20066;-29
2022/03/22 00:37:07;;;;;;;0.20;0.20;;;;;;;20.70;35.96;102717.09;5126430;28;20071;-31
2022/03/22 00:39:33;;;;;;;0.20;0.20;;;;;;;20.70;36.11;102708.78;5126586;28;20065;-34
2022/03/22 00:41:58;;;;;;;0.10;0.10;;;;;;;20.71;35.62;102713.22;5128289;27;20095;-31
2022/03/22 00:44:24;;;;;;;0.20;0.20;;;;;;;20.72;36.01;102711.28;5127726;27;20051;-32
2022/03/22 00:46:50;;;;;;;0.20;0.20;;;;;;;20.71;36.08;102712.38;5128007;28;20039;-28
2022/03/22 00:49:16;;;;;;;0.20;0.20;;;;;;;20.70;36.07;102714.31;5109525;28;20067;-30
2022/03/22 00:51:41;;;;;;;0.20;0.20;;;;;;;20.70;36.14;102713.50;5124716;27;20046;-30
2022/03/22 00:54:07;;;;;;;0.20;0.20;;;;;;;20.70;35.96;102714.31;5128474;27;20045;-31
2022/03/22 00:56:33;;;;;;;0.10;0.10;;;;;;;20.70;36.21;102717.09;5125779;28;20062;-34
2022/03/22 01:01:44;;;;;;;0.20;0.20;;;;;;;20.70;35.84;102717.09;5110013;28;20176;-31
2022/03/22 01:04:10;;;;;;;0.10;0.10;;;;;;;20.70;36.21;102719.84;5126517;27;20043;-30
2022/03/22 01:06:37;;;;;;;0.10;0.10;;;;;;;20.71;36.13;102715.16;5127569;28;20100;-31
2022/03/22 01:09:02;;;;;;;0.20;0.20;;;;;;;20.71;35.96;102712.38;5125904;28;20074;-31
2022/03/22 01:11:28;;;;;;;0.10;0.10;;;;;;;20.70;35.94;102717.09;5124491;27;20111;-31
2022/03/22 01:13:55;;;;;;;0.10;0.10;;;;;;;20.71;35.97;102709.63;5127145;27;20055;-30
2022/03/22 01:16:21;;;;;;;0.10;0.10;;;;;;;20.69;36.36;102709.03;5127311;28;20070;-33
2022/03/22 01:18:46;;;;;;;0.20;0.20;;;;;;;20.70;36.21;102716.25;5127471;28;20043;-29
2022/03/22 01:21:12;;;;;;;0.20;0.20;;;;;;;20.69;36.22;102714.59;5125406;28;20053;-31
2022/03/22 01:23:38;;;;;;;0.10;0.10;;;;;;;20.69;35.98;102723.72;5126750;27;20170;-30
2022/03/22 01:26:06;;;;;;;0.10;0.10;;;;;;;20.70;35.98;102717.09;5126513;28;20130;-30
2022/03/22 01:28:31;;;;;;;0.10;0.10;;;;;;;20.70;35.94;102719.84;5127991;28;20076;-31
2022/03/22 01:30:57;;;;;;;0.20;0.20;;;;;;;20.70;36.00;102713.50;5126247;27;20047;-31
2022/03/22 01:33:23;;;;;;;0.20;0.20;;;;;;;20.70;36.19;102710.72;5125902;28;20070;-31
2022/03/22 01:35:48;;;;;;;0.20;0.20;;;;;;;20.68;36.16;102702.66;5127772;28;20039;-31
2022/03/22 01:38:14;;;;;;;0.20;0.20;;;;;;;20.70;36.22;102710.72;5128316;28;20489;-32
2022/03/22 01:40:40;;;;;;;0.20;0.20;;;;;;;20.69;36.00;102714.59;5125661;28;20043;-31
2022/03/22 01:43:06;;;;;;;0.20;0.20;;;;;;;20.68;36.08;102710.97;5110401;28;20058;-31
2022/03/22 01:45:32;;;;;;;0.20;0.20;;;;;;;20.70;35.83;102707.94;5127639;27;20107;-31
2022/03/22 01:48:00;;;;;;;0.20;0.20;;;;;;;20.69;36.19;102706.28;5107866;28;20075;-29
2022/03/22 01:50:27;;;;;;;0.20;0.20;;;;;;;20.69;36.16;102704.34;5125367;28;20043;-31
2022/03/22 01:52:54;;;;;;;0.20;0.20;;;;;;;20.69;36.23;102707.13;5109206;28;20443;-32
2022/03/22 01:55:20;;;;;;;0.10;0.10;;;;;;;20.68;36.25;102708.22;5107068;28;20089;-31
2022/03/22 01:57:47;;;;;;;0.20;0.20;;;;;;;20.69;36.09;102700.75;5126980;28;20386;-31
2022/03/22 02:00:15;;;;;;;0.20;0.20;;;;;;;20.70;36.17;102705.19;5124699;28;20500;-30
2022/03/22 02:06:02;;;;;;;0.20;0.20;;;;;;;20.68;35.98;102697.13;5110227;28;20047;-29
2022/03/22 02:08:17;;;;;;;0.10;0.10;;;;;;;20.69;36.07;102692.44;5111119;28;20071;-31
2022/03/22 02:10:43;;;;;;;0.10;0.10;;;;;;;20.70;35.92;102700.47;5105929;28;20410;-30
2022/03/22 02:13:09;;;;;;;0.10;0.10;;;;;;;20.69;36.05;102692.44;5125704;27;21249;-32
2022/03/22 02:15:34;;;;;;;0.13;0.13;;;;;;;20.69;36.09;102693.28;5090040;28;21404;-33
2022/03/22 02:18:00;;;;;;;0.17;0.17;;;;;;;20.69;36.07;102689.66;5127840;28;20047;-31
2022/03/22 02:20:27;;;;;;;0.20;0.20;;;;;;;20.69;36.05;102690.50;5123948;28;20465;-34
2022/03/22 02:22:59;;;;;;;0.20;0.20;;;;;;;20.68;35.85;102696.25;5106399;28;20062;-29
2022/03/22 02:25:24;;;;;;;0.10;0.10;;;;;;;20.68;36.12;102691.59;5107079;28;20074;-33
2022/03/22 02:27:52;;;;;;;0.20;0.20;;;;;;;20.68;36.25;102691.59;5108319;28;20039;-29
2022/03/22 02:30:18;;;;;;;0.10;0.10;;;;;;;20.67;36.31;102684.34;5107048;28;20068;-29
2022/03/22 02:32:53;;;;;;;0.10;0.10;;;;;;;20.67;36.46;102687.13;5127109;27;20120;-29
2022/03/22 02:35:19;;;;;;;0.10;0.10;;;;;;;20.67;36.39;102676.06;5107266;28;20118;-29
2022/03/22 02:37:46;;;;;;;0.10;0.10;;;;;;;20.69;36.23;102686.91;5106756;28;20070;-31
2022/03/22 02:40:13;;;;;;;0.20;0.20;;;;;;;20.68;36.24;102683.28;5106907;28;20055;-33
2022/03/22 02:42:42;;;;;;;0.20;0.20;;;;;;;20.69;36.03;102675.81;5125740;27;20082;-31
2022/03/22 02:45:08;;;;;;;0.10;0.10;;;;;;;20.68;36.30;102679.66;5125567;27;20097;-32
2022/03/22 02:47:34;;;;;;;0.17;0.17;;;;;;;20.68;36.24;102688.81;5127152;28;20067;-29
2022/03/22 02:50:00;;;;;;;0.13;0.13;;;;;;;20.68;36.26;102682.44;5124033;28;20074;-29
2022/03/22 02:52:25;;;;;;;0.20;0.20;;;;;;;20.68;36.00;102685.19;5125486;28;20054;-32
2022/03/22 02:54:51;;;;;;;0.15;0.15;;;;;;;20.67;36.01;102680.75;5125742;28;20047;-30
2022/03/22 02:57:17;;;;;;;0.20;0.20;;;;;;;20.67;36.12;102686.28;5125007;28;20047;-31
2022/03/22 02:59:43;;;;;;;0.20;0.20;;;;;;;20.66;36.31;102679.91;5126031;28;20398;-29
2022/03/22 03:02:08;;;;;;;0.20;0.20;;;;;;;20.66;36.04;102679.06;5129722;27;20051;-32
2022/03/22 03:04:34;;;;;;;0.10;0.10;;;;;;;20.67;36.23;102677.97;5128588;28;20042;-32
2022/03/22 03:07:00;;;;;;;0.10;0.10;;;;;;;20.67;36.25;102684.34;5130385;28;20389;-29
2022/03/22 03:09:26;;;;;;;0.20;0.20;;;;;;;20.67;36.06;102684.34;5129998;28;20043;-30
2022/03/22 03:11:51;;;;;;;0.20;0.20;;;;;;;20.68;36.23;102686.06;5129025;27;20049;-29
2022/03/22 03:14:48;;;;;;;0.20;0.20;;;;;;;20.67;36.22;102686.28;5111463;28;20089;-29
2022/03/22 03:17:03;;;;;;;0.20;0.20;;;;;;;20.68;36.24;102685.19;5114583;28;20075;-32
2022/03/22 03:19:28;;;;;;;0.20;0.20;;;;;;;20.67;36.14;102689.06;5128027;28;20050;-29
2022/03/22 03:21:54;;;;;;;0.20;0.20;;;;;;;20.69;36.19;102689.66;5127256;27;20051;-29
2022/03/22 03:24:20;;;;;;;0.10;0.10;;;;;;;20.68;36.10;102690.72;5129283;27;20494;-30
2022/03/22 03:26:45;;;;;;;0.17;0.17;;;;;;;20.68;36.08;102696.25;5129325;28;20410;-33
2022/03/22 03:29:11;;;;;;;0.10;0.10;;;;;;;20.67;36.08;102695.44;5128804;28;20082;-31
2022/03/22 03:31:37;;;;;;;0.15;0.15;;;;;;;20.67;36.06;102694.59;5127952;27;20047;-31
2022/03/22 03:34:02;;;;;;;0.20;0.20;;;;;;;20.66;36.08;102696.53;5129577;28;20046;-29
2022/03/22 03:36:28;;;;;;;0.20;0.20;;;;;;;20.68;36.00;102704.56;5127997;28;20088;-29
2022/03/22 03:38:54;;;;;;;0.10;0.10;;;;;;;20.67;36.30;102698.19;5128910;28;20047;-29
2022/03/22 03:47:03;;;;;;;0.10;0.10;;;;;;;20.67;36.00;102702.91;5113917;27;20470;-29
2022/03/22 03:47:22;;;;;;;0.13;0.13;;;;;;;20.67;35.99;102706.50;5112274;28;20497;-30
2022/03/22 03:49:38;;;;;;;0.20;0.20;;;;;;;20.67;36.26;102700.97;5113046;28;20082;-29
2022/03/22 03:52:07;;;;;;;0.10;0.10;;;;;;;20.67;36.10;102703.72;5126361;27;20108;-31
2022/03/22 03:54:33;;;;;;;0.20;0.20;;;;;;;20.67;36.17;102711.22;5110063;28;20487;-30
2022/03/22 03:56:59;;;;;;;0.10;0.10;;;;;;;20.67;36.24;102712.03;5127461;28;20087;-31
2022/03/22 03:59:25;;;;;;;0.13;0.13;;;;;;;20.66;36.44;102709.53;5128193;28;20047;-29
2022/03/22 04:01:50;;;;;;;0.10;0.10;;;;;;;20.67;36.16;102711.22;5127848;27;20047;-29
2022/03/22 04:04:16;;;;;;;0.20;0.20;;;;;;;20.67;36.38;102711.22;5110517;28;20046;-29
2022/03/22 04:06:42;;;;;;;0.10;0.10;;;;;;;20.67;36.40;102713.97;5128338;28;20046;-29
2022/03/22 04:09:07;;;;;;;0.10;0.10;;;;;;;20.67;36.32;102719.50;5127758;27;20046;-30
2022/03/22 04:11:33;;;;;;;0.10;0.10;;;;;;;20.65;36.30;102719.78;5127064;27;20501;-32
2022/03/22 04:13:58;;;;;;;0.15;0.15;;;;;;;20.67;36.15;102730.59;5128441;27;20425;-32
2022/03/22 04:16:24;;;;;;;0.10;0.10;;;;;;;20.67;36.20;102722.28;5128786;28;20043;-31
2022/03/22 04:18:50;;;;;;;0.10;0.10;;;;;;;20.67;36.28;102712.03;5129491;28;20051;-30
2022/03/22 04:21:16;;;;;;;0.10;0.10;;;;;;;20.66;36.26;102718.66;5127025;27;20155;-29
2022/03/22 04:23:42;;;;;;;0.20;0.20;;;;;;;20.67;35.97;102722.28;5110392;28;20039;-32
2022/03/22 04:26:07;;;;;;;0.20;0.20;;;;;;;20.66;36.38;102721.44;5128652;28;20042;-32
2022/03/22 04:34:05;;;;;;;0.20;0.20;;;;;;;20.65;36.28;102719.78;5110502;27;20134;-33
2022/03/22 04:36:31;;;;;;;0.10;0.10;;;;;;;20.66;36.32;102720.59;5127071;28;20070;-34
2022/03/22 04:38:56;;;;;;;0.20;0.20;;;;;;;20.66;36.14;102715.06;5127561;28;20047;-30
2022/03/22 04:41:23;;;;;;;0.10;0.10;;;;;;;20.65;36.42;102719.78;5126413;27;20043;-31
2022/03/22 04:43:50;;;;;;;0.20;0.20;;;;;;;20.65;36.26;102722.53;5128672;27;20096;-31
2022/03/22 04:46:18;;;;;;;0.10;0.10;;;;;;;20.67;36.13;102725.88;5127876;28;20141;-29
2022/03/22 04:48:45;;;;;;;0.20;0.20;;;;;;;20.67;36.36;102727.81;5127869;28;20090;-30
2022/03/22 04:56:45;;;;;;;0.10;0.10;;;;;;;20.64;36.08;102723.63;5097406;28;20557;-29
2022/03/22 04:59:12;;;;;;;0.20;0.20;;;;;;;20.66;36.23;102718.66;5109400;28;20512;-29
2022/03/22 05:01:43;;;;;;;0.20;0.20;;;;;;;20.66;36.33;102720.59;5109703;28;20050;-29
2022/03/22 05:04:10;;;;;;;0.20;0.20;;;;;;;20.65;36.40;102722.53;5109502;28;20039;-31
2022/03/22 05:06:37;;;;;;;0.10;0.10;;;;;;;20.65;36.36;102727.25;5128396;28;20520;-31
2022/03/22 05:09:04;;;;;;;0.20;0.20;;;;;;;20.65;36.32;102725.31;5109846;28;20074;-33
2022/03/22 05:11:30;;;;;;;0.20;0.20;;;;;;;20.65;36.41;102730.00;5106436;28;20078;-30
2022/03/22 05:13:57;;;;;;;0.10;0.10;;;;;;;20.65;36.13;102730.84;5127368;27;20035;-30
2022/03/22 05:16:24;;;;;;;0.20;0.20;;;;;;;20.64;36.32;102731.94;5109959;28;20081;-31
2022/03/22 05:18:50;;;;;;;0.17;0.17;;;;;;;20.66;36.37;102734.44;5128479;28;20318;-33
2022/03/22 05:21:17;;;;;;;0.10;0.10;;;;;;;20.66;36.40;102731.69;5106642;27;20082;-33
2022/03/22 05:23:45;;;;;;;0.20;0.20;;;;;;;20.65;36.38;102739.16;5108464;27;20058;-30
2022/03/22 05:26:12;;;;;;;0.10;0.10;;;;;;;20.65;36.17;102736.38;5126682;28;20075;-33
2022/03/22 05:28:37;;;;;;;0.10;0.10;;;;;;;20.65;36.05;102738.31;5127863;28;20319;-31
2022/03/22 05:31:04;;;;;;;0.20;0.20;;;;;;;20.65;36.21;102741.06;5125707;27;20050;-31
2022/03/22 05:33:30;;;;;;;0.10;0.10;;;;;;;20.65;36.35;102744.69;5109569;28;20075;-30
2022/03/22 05:35:56;;;;;;;0.20;0.20;;;;;;;20.65;36.00;102744.69;5127275;28;20043;-30
2022/03/22 05:38:25;;;;;;;0.10;0.10;;;;;;;20.65;36.25;102750.22;5105905;28;20086;-30
2022/03/22 05:40:51;;;;;;;0.20;0.20;;;;;;;20.66;36.06;102754.66;5123649;28;20074;-29
2022/03/22 05:43:17;;;;;;;0.20;0.20;;;;;;;20.66;36.31;102751.91;5108545;28;20124;-32
2022/03/22 05:45:46;;;;;;;0.20;0.20;;;;;;;20.65;36.52;102755.75;5125628;27;20076;-29
2022/03/22 05:48:12;;;;;;;0.10;0.10;;;;;;;20.64;36.24;102756.84;5126456;28;20039;-29
2022/03/22 05:50:38;;;;;;;0.20;0.20;;;;;;;20.65;36.36;102757.69;5124637;28;20046;-29
2022/03/22 05:53:03;;;;;;;0.10;0.10;;;;;;;20.65;36.14;102755.75;5127028;27;20210;-32
2022/03/22 05:55:29;;;;;;;0.10;0.10;;;;;;;20.66;36.27;102760.19;5125646;27;20359;-29
2022/03/22 05:57:55;;;;;;;0.10;0.10;;;;;;;20.66;36.38;102759.38;5109370;28;20421;-30
2022/03/22 06:00:21;;;;;;;0.10;0.10;;;;;;;20.66;36.07;102764.91;5126214;27;20047;-30
2022/03/22 06:02:47;;;;;;;0.17;0.17;;;;;;;20.67;36.40;102761.03;5125959;27;20043;-29
2022/03/22 06:05:13;;;;;;;0.10;0.10;;;;;;;20.65;36.42;102760.47;5128161;28;20108;-29
2022/03/22 06:07:39;;;;;;;0.10;0.10;;;;;;;20.66;36.50;102764.91;5108281;28;20070;-30
2022/03/22 06:10:06;;;;;;;0.20;0.20;;;;;;;20.65;36.01;102769.59;5124925;28;20300;-31
2022/03/22 06:12:51;;;;;;;0.20;0.20;;;;;;;20.66;36.55;102773.22;5109163;28;20085;-31
2022/03/22 06:15:21;;;;;;;0.20;0.20;;;;;;;20.67;36.38;102774.88;5108687;28;20085;-31
2022/03/22 06:17:49;;;;;;;0.20;0.20;;;;;;;20.66;36.14;102775.97;5127103;28;20079;-30
2022/03/22 06:20:17;;;;;;;0.10;0.10;;;;;;;20.66;36.31;102775.97;5124228;28;20482;-31
2022/03/22 06:22:44;;;;;;;0.10;0.10;;;;;;;20.66;36.06;102776.81;5126384;27;20055;-32
2022/03/22 06:25:09;;;;;;;0.20;0.20;;;;;;;20.65;36.40;102786.22;5107367;28;20074;-31
2022/03/22 06:27:36;;;;;;;0.10;0.10;;;;;;;20.65;36.47;102782.59;5126763;28;20426;-33
2022/03/22 06:30:04;;;;;;;0.10;0.10;;;;;;;20.64;36.36;102780.91;5122020;28;20088;-32
2022/03/22 06:32:29;;;;;;;0.20;0.20;;;;;;;20.65;36.35;102780.66;5107644;27;20078;-32
2022/03/22 06:34:55;;;;;;;0.20;0.20;;;;;;;20.65;36.31;102785.38;5128261;28;20043;-32
2022/03/22 06:37:21;;;;;;;0.10;0.10;;;;;;;20.65;36.03;102786.22;5128981;28;20053;-31
2022/03/22 06:39:47;;;;;;;0.10;0.10;;;;;;;20.65;36.25;102786.22;5126677;27;20143;-32
2022/03/22 06:42:13;;;;;;;0.20;0.20;;;;;;;20.65;36.01;102783.44;5128695;27;20197;-32
2022/03/22 06:44:40;;;;;;;0.10;0.10;;;;;;;20.66;36.40;102789.81;5127099;27;20055;-32
2022/03/22 06:47:06;;;;;;;0.20;0.20;;;;;;;20.65;36.35;102791.75;5128294;28;20067;-30
2022/03/22 06:49:31;;;;;;;0.20;0.20;;;;;;;20.65;36.00;102800.06;5127169;28;20284;-32
2022/03/22 06:51:57;;;;;;;0.10;0.10;;;;;;;20.64;36.05;102792.84;5119400;27;20498;-31
2022/03/22 06:54:23;;;;;;;0.15;0.15;;;;;;;20.65;36.17;102794.50;5126827;27;20043;-31
2022/03/22 06:56:48;;;;;;;0.20;0.20;;;;;;;20.65;36.25;102801.97;5122665;28;20047;-33
2022/03/22 06:59:14;;;;;;;0.17;0.17;;;;;;;20.65;36.06;102805.59;5122818;27;20058;-31
2022/03/22 07:01:40;;;;;;;0.10;0.10;;;;;;;20.65;35.95;102796.44;5115723;27;20478;-31
2022/03/22 07:04:05;;;;;;;0.10;0.10;;;;;;;20.64;36.11;102801.16;5098529;28;20056;-33
2022/03/22 07:06:31;;;;;;;0.10;0.10;;;;;;;20.65;35.83;102801.97;5117938;28;20072;-31
2022/03/22 07:08:57;;;;;;;0.20;0.20;;;;;;;20.66;35.96;102806.44;5122543;28;20091;-31
2022/03/22 07:11:56;;;;;;;0.13;0.13;;;;;;;20.65;35.99;102808.34;5120304;27;20047;-31
2022/03/22 07:14:08;;;;;;;0.20;0.20;;;;;;;20.65;35.90;102805.59;5107851;27;20137;-31
2022/03/22 07:16:36;;;;;;;0.10;0.10;;;;;;;20.65;36.06;102804.75;5125072;28;20510;-29
2022/03/22 07:19:02;;;;;;;0.20;0.20;;;;;;;20.65;36.01;102807.53;5123510;27;20071;-33
2022/03/22 07:21:29;;;;;;;0.20;0.20;;;;;;;20.64;36.08;102806.69;5124418;27;20045;-31
2022/03/22 07:23:55;;;;;;;0.13;0.13;;;;;;;20.65;35.79;102807.53;5124795;27;20044;-32
2022/03/22 07:26:22;;;;;;;0.10;0.10;;;;;;;20.64;35.92;102806.69;5124560;28;20130;-31
2022/03/22 07:28:48;;;;;;;0.20;0.20;;;;;;;20.65;36.01;102808.34;5126704;27;20082;-30
2022/03/22 07:31:13;;;;;;;0.10;0.10;;;;;;;20.65;36.07;102815.81;5124703;27;20077;-31
2022/03/22 07:33:39;;;;;;;0.20;0.20;;;;;;;20.65;36.08;102810.28;5122443;27;20051;-35
2022/03/22 07:36:05;;;;;;;0.20;0.20;;;;;;;20.64;35.92;102806.69;5125545;28;21773;-33
2022/03/22 07:38:31;;;;;;;0.20;0.20;;;;;;;20.64;36.04;102805.81;5120780;27;20039;-31
2022/03/22 07:40:57;;;;;;;0.20;0.20;;;;;;;20.63;35.84;102804.97;5095339;27;20390;-33
2022/03/22 07:43:23;;;;;;;0.10;0.10;;;;;;;20.65;35.86;102813.06;5100948;28;20044;-32
2022/03/22 07:45:49;;;;;;;0.10;0.10;;;;;;;20.63;36.00;102804.97;5100142;27;20542;-31
2022/03/22 07:48:16;;;;;;;0.10;0.10;;;;;;;20.65;35.94;102802.81;5102438;28;20474;-28
2022/03/22 07:53:27;;;;;;;0.20;0.20;;;;;;;20.64;35.81;102806.69;5104914;27;20209;-33
2022/03/22 07:55:53;;;;;;;0.20;0.20;;;;;;;20.64;35.94;102809.44;5115227;27;20050;-32
2022/03/22 07:58:18;;;;;;;0.20;0.20;;;;;;;20.64;35.86;102811.34;5111087;27;20107;-33
2022/03/22 08:00:45;;;;;;;0.20;0.20;;;;;;;20.64;35.78;102816.88;5114244;27;20731;-31
2022/03/22 08:03:15;;;;;;;0.10;0.10;;;;;;;20.64;36.01;102822.41;5112999;27;20051;-29
2022/03/22 08:05:44;;;;;;;0.20;0.20;;;;;;;20.65;35.74;102824.13;5088102;28;20685;-33
2022/03/22 08:08:10;;;;;;;0.10;0.10;;;;;;;20.64;36.08;102826.06;5088524;28;20086;-32
2022/03/22 08:10:55;;;;;;;0.13;0.13;;;;;;;20.65;35.84;102827.72;5096582;28;20070;-32
2022/03/22 08:13:21;;;;;;;0.20;0.20;;;;;;;20.64;35.75;102822.41;5112698;27;20522;-38
2022/03/22 08:15:47;;;;;;;0.20;0.20;;;;;;;20.64;35.63;102819.66;5104822;27;20066;-31
2022/03/22 08:18:13;;;;;;;0.20;0.20;;;;;;;20.64;36.05;102826.06;5116675;27;20059;-34
2022/03/22 08:20:38;;;;;;;0.20;0.20;;;;;;;20.66;35.77;102828.56;5113790;28;20043;-32
2022/03/22 08:23:06;;;;;;;0.20;0.20;;;;;;;20.65;36.08;102826.91;5114274;27;20047;-34
2022/03/22 08:25:36;;;;;;;0.20;0.20;;;;;;;20.65;35.77;102826.91;5114118;27;20074;-30
2022/03/22 08:28:03;;;;;;;0.20;0.20;;;;;;;20.64;35.75;102828.81;5116211;27;20066;-33
2022/03/22 08:30:29;;;;;;;0.10;0.10;;;;;;;20.63;35.76;102823.53;5090067;28;21386;-32
2022/03/22 08:32:58;;;;;;;0.10;0.10;;;;;;;20.66;35.94;102820.28;5109622;27;20091;-30
2022/03/22 08:35:25;;;;;;;0.20;0.20;;;;;;;20.65;35.73;102821.38;5107986;27;20661;-33
2022/03/22 08:37:52;;;;;;;0.10;0.10;;;;;;;20.66;35.71;102823.03;5087896;27;20048;-30
2022/03/22 08:40:18;;;;;;;0.17;0.17;;;;;;;20.65;35.81;102819.44;5109406;27;20142;-30
2022/03/22 08:42:45;;;;;;;0.20;0.20;;;;;;;20.66;35.82;102817.50;5098802;27;20057;-31
2022/03/22 08:45:15;;;;;;;0.20;0.20;;;;;;;20.65;35.59;102818.59;5096486;28;20043;-32
2022/03/22 08:47:42;;;;;;;0.10;0.10;;;;;;;20.64;35.90;102811.34;5110644;27;20418;-32
2022/03/22 08:50:09;;;;;;;0.20;0.20;;;;;;;20.65;35.92;102822.19;5090057;28;20205;-31
2022/03/22 08:52:37;;;;;;;0.10;0.10;;;;;;;20.65;35.82;102813.06;5079158;28;20150;-32
2022/03/22 08:55:04;;;;;;;0.10;0.10;;;;;;;20.65;35.89;102821.38;5094899;27;20097;-31
2022/03/22 08:57:30;;;;;;;0.20;0.20;;;;;;;20.65;35.72;102813.91;5094124;28;20082;-31
2022/03/22 08:59:56;;;;;;;0.10;0.10;;;;;;;20.66;35.85;102817.50;5094027;27;20097;-31
2022/03/22 09:02:22;;;;;;;0.10;0.10;;;;;;;20.64;35.74;102809.44;5104252;27;20055;-32
2022/03/22 09:07:33;;;;;;;0.20;0.20;;;;;;;20.65;35.72;102818.59;5087802;27;20126;-31
2022/03/22 09:09:59;;;;;;;0.20;0.20;;;;;;;20.64;35.83;102815.00;5105417;28;20280;-31
2022/03/22 09:12:24;;;;;;;0.20;0.20;;;;;;;20.65;35.67;102818.59;5109490;27;20043;-35
2022/03/22 09:14:53;;;;;;;0.20;0.20;;;;;;;20.65;35.57;102810.28;5116638;27;20062;-37
2022/03/22 09:17:20;;;;;;;0.20;0.20;;;;;;;20.66;35.71;102809.19;5116496;27;20066;-31
2022/03/22 09:19:46;;;;;;;0.10;0.10;;;;;;;20.64;35.70;102817.75;5114317;27;20083;-31
2022/03/22 09:22:24;;;;;;;0.20;0.20;;;;;;;20.66;35.55;102807.25;5111591;27;20088;-31
2022/03/22 09:24:51;;;;;;;0.20;0.20;;;;;;;20.64;35.45;102801.16;5111790;27;20043;-30
2022/03/22 09:27:16;;;;;;;0.20;0.20;;;;;;;20.65;35.60;102800.06;5109125;27;20101;-33
2022/03/22 09:29:43;;;;;;;0.13;0.13;;;;;;;20.66;35.60;102800.88;5106677;27;20537;-33
2022/03/22 09:32:08;;;;;;;0.20;0.20;;;;;;;20.66;35.33;102798.13;5099467;27;20484;-32
2022/03/22 09:34:34;;;;;;;0.10;0.10;;;;;;;20.65;35.66;102791.75;5110049;27;20458;-34
2022/03/22 09:37:00;;;;;;;0.20;0.20;;;;;;;20.66;35.71;102790.66;5108365;27;20066;-32
2022/03/22 09:39:26;;;;;;;0.20;0.20;;;;;;;20.66;35.36;102787.88;5106246;27;20054;-31
2022/03/22 09:41:52;;;;;;;0.20;0.20;;;;;;;20.65;35.36;102785.38;5106013;27;20054;-32
2022/03/22 09:44:19;;;;;;;0.10;0.10;;;;;;;20.65;35.45;102779.84;5088857;27;20138;-31
2022/03/22 09:46:48;;;;;;;0.20;0.20;;;;;;;20.65;35.21;102796.44;5091356;28;20514;-33
2022/03/22 09:49:16;;;;;;;0.10;0.10;;;;;;;20.58;34.48;102787.44;5093343;27;20042;-33
2022/03/22 09:51:45;;;;;;;0.20;0.20;;;;;;;20.64;34.80;102784.53;5104623;27;20101;-33
2022/03/22 09:54:13;;;;;;;0.20;0.20;;;;;;;20.66;34.89;102779.56;5078349;27;20222;-32
2022/03/22 09:56:40;;;;;;;0.20;0.20;;;;;;;20.67;34.90;102780.41;5088161;27;21215;-33
2022/03/22 09:59:06;;;;;;;0.10;0.10;;;;;;;20.68;34.69;102785.72;5091596;27;20079;-32
2022/03/22 10:01:33;;;;;;;0.20;0.20;;;;;;;20.67;35.04;102772.94;5114028;27;20069;-32
2022/03/22 10:04:00;;;;;;;0.10;0.10;;;;;;;20.69;34.83;102770.78;5092748;27;20498;-32
2022/03/22 10:06:28;;;;;;;0.20;0.20;;;;;;;20.70;34.90;102768.84;5108156;27;20553;-33
2022/03/22 10:08:54;;;;;;;0.10;0.10;;;;;;;20.70;34.93;102769.69;5110963;27;20525;-32
2022/03/22 10:11:20;;;;;;;0.20;0.20;;;;;;;20.71;34.88;102767.75;5073076;27;20119;-35
2022/03/22 10:13:57;;;;;;;0.13;0.13;;;;;;;20.71;35.22;102771.38;5114344;27;20047;-31
2022/03/22 10:16:23;;;;;;;0.10;0.10;;;;;;;20.72;35.06;102774.97;5101921;28;20057;-31
2022/03/22 10:18:49;;;;;;;0.20;0.20;;;;;;;20.74;34.88;102770.03;5114395;27;20039;-31
2022/03/22 10:21:14;;;;;;;0.20;0.20;;;;;;;20.74;34.82;102770.88;5091807;27;20051;-33
2022/03/22 10:23:50;;;;;;;0.20;0.20;;;;;;;20.74;34.87;102765.34;5118601;27;20081;-32
2022/03/22 10:26:16;;;;;;;0.10;0.10;;;;;;;20.74;35.05;102768.13;5111847;27;20399;-33
2022/03/22 10:28:57;;;;;;;0.20;0.20;;;;;;;20.73;34.89;102762.84;5109434;27;20860;-32
2022/03/22 10:31:40;;;;;;;0.20;0.20;;;;;;;20.75;34.87;102755.94;5106554;27;20495;-34
2022/03/22 10:34:07;;;;;;;0.10;0.10;;;;;;;20.76;35.03;102757.63;5091851;27;20130;-33
2022/03/22 10:36:36;;;;;;;0.20;0.20;;;;;;;20.77;35.17;102759.31;5093032;27;20097;-32
2022/03/22 10:39:05;;;;;;;0.10;0.10;;;;;;;20.79;35.09;102759.06;5106162;27;20138;-30
2022/03/22 10:41:32;;;;;;;0.10;0.10;;;;;;;20.79;35.12;102761.84;5077671;28;20298;-31
2022/03/22 10:44:07;;;;;;;0.20;0.20;;;;;;;20.80;35.03;102757.97;5110154;27;20788;-31
2022/03/22 10:46:35;;;;;;;0.20;0.20;;;;;;;20.80;34.92;102755.19;5103929;27;20173;-30
2022/03/22 10:49:07;;;;;;;0.10;0.10;;;;;;;20.80;34.92;102761.56;5108382;27;20133;-29
2022/03/22 10:51:34;;;;;;;0.10;0.10;;;;;;;20.83;35.02;102753.88;5104776;27;20650;-30
2022/03/22 10:54:00;;;;;;;0.10;0.10;;;;;;;20.83;34.99;102759.41;5091928;28;20141;-30
2022/03/22 10:56:26;;;;;;;0.10;0.10;;;;;;;20.84;35.06;102744.47;5087868;27;20307;-29
2022/03/22 10:58:54;;;;;;;0.10;0.10;;;;;;;20.84;34.85;102752.78;5089604;27;20374;-30
2022/03/22 11:01:22;;;;;;;0.20;0.20;;;;;;;20.84;35.05;102748.06;5107546;27;20276;-33
2022/03/22 11:03:48;;;;;;;0.10;0.10;;;;;;;20.85;35.09;102751.69;5113172;27;20119;-31
2022/03/22 11:06:14;;;;;;;0.10;0.10;;;;;;;20.85;34.89;102743.38;5092659;28;20489;-33
2022/03/22 11:08:41;;;;;;;0.20;0.20;;;;;;;20.85;34.97;102741.44;5113878;27;20051;-32
2022/03/22 11:11:07;;;;;;;0.20;0.20;;;;;;;20.87;34.66;102738.44;5114227;27;20085;-30
2022/03/22 11:13:33;;;;;;;0.10;0.10;;;;;;;20.86;34.69;102740.38;5093323;27;20078;-30
2022/03/22 11:15:59;;;;;;;0.20;0.20;;;;;;;20.87;34.86;102738.44;5088973;27;20077;-30
2022/03/22 11:18:28;;;;;;;0.20;0.20;;;;;;;20.86;34.80;102734.84;5108926;27;20638;-31
2022/03/22 11:20:56;;;;;;;0.20;0.20;;;;;;;20.87;34.92;102739.28;5087363;28;20063;-30
2022/03/22 11:23:23;;;;;;;0.20;0.20;;;;;;;20.86;34.92;102737.63;5119712;27;20134;-29
2022/03/22 11:25:49;;;;;;;0.10;0.10;;;;;;;20.86;34.83;102732.06;5093105;28;20054;-29
2022/03/22 11:28:19;;;;;;;0.17;0.17;;;;;;;20.85;34.75;102732.28;5098513;28;20613;-29
2022/03/22 11:30:46;;;;;;;0.20;0.20;;;;;;;20.86;34.87;102725.69;5117713;27;20104;-30
2022/03/22 11:36:11;;;;;;;0.10;0.10;;;;;;;20.85;34.75;102721.22;5099884;28;20075;-30
2022/03/22 11:38:54;;;;;;;0.15;0.15;;;;;;;20.86;35.04;102723.75;5099798;28;20510;-29
2022/03/22 11:47:14;;;;;;;0.20;0.20;;;;;;;20.85;34.85;102718.44;5137829;27;20144;-29
2022/03/22 11:50:00;;;;;;;0.20;0.20;;;;;;;20.85;34.93;102710.97;5121788;27;20475;-31
2022/03/22 11:52:36;;;;;;;0.20;0.20;;;;;;;20.70;32.39;102711.56;5102614;27;20803;-34
2022/03/22 11:55:15;;;;;;;0.20;0.20;;;;;;;20.78;33.51;102716.69;5121995;27;20733;-34
2022/03/22 11:58:03;;;;;;;0.13;0.13;;;;;;;20.74;32.48;102707.19;5111959;27;20082;-38
2022/03/22 12:00:56;;;;;;;0.20;0.20;;;;;;;20.85;33.16;102715.69;5104833;27;20109;-33